createdAt,value
2017-12-17T00:00:19.377Z,960.88
2017-12-17T00:01:19.315Z,960.88
2017-12-17T00:02:19.248Z,960.88
2017-12-17T00:03:19.183Z,960.82
2017-12-17T00:04:19.117Z,960.87
2017-12-17T00:05:19.053Z,960.81
2017-12-17T00:06:18.988Z,960.85
2017-12-17T00:07:18.923Z,960.84
2017-12-17T00:08:18.956Z,960.85
2017-12-17T00:09:18.794Z,960.89
2017-12-17T00:10:18.727Z,960.85
2017-12-17T00:11:18.663Z,960.86
2017-12-17T00:12:18.599Z,960.88
2017-12-17T00:13:18.547Z,960.91
2017-12-17T00:14:18.471Z,960.90
2017-12-17T00:15:18.404Z,960.90
2017-12-17T00:16:18.343Z,960.86
2017-12-17T00:17:18.275Z,960.88
2017-12-17T00:18:18.207Z,960.87
2017-12-17T00:19:18.148Z,960.87
2017-12-17T00:20:18.082Z,960.88
2017-12-17T00:21:18.017Z,960.91
2017-12-17T00:22:17.951Z,960.84
2017-12-17T00:23:17.884Z,960.83
2017-12-17T00:24:17.822Z,960.84
2017-12-17T00:25:17.757Z,960.80
2017-12-17T00:26:17.692Z,960.83
2017-12-17T00:27:17.655Z,960.81
2017-12-17T00:28:17.561Z,960.79
2017-12-17T00:29:17.500Z,960.84
2017-12-17T00:30:17.436Z,960.82
2017-12-17T00:31:17.369Z,960.85
2017-12-17T00:32:17.304Z,960.81
2017-12-17T00:33:17.240Z,960.85
2017-12-17T00:34:17.173Z,960.91
2017-12-17T00:35:17.109Z,960.94
2017-12-17T00:36:17.043Z,960.93
2017-12-17T00:37:16.979Z,960.92
2017-12-17T00:38:16.914Z,960.89
2017-12-17T00:39:16.857Z,960.95
2017-12-17T00:40:16.787Z,960.89
2017-12-17T00:41:16.721Z,960.87
2017-12-17T00:42:16.659Z,960.90
2017-12-17T00:43:16.593Z,960.88
2017-12-17T00:44:16.529Z,960.90
2017-12-17T00:45:16.462Z,960.89
2017-12-17T00:46:16.397Z,960.93
2017-12-17T00:47:16.334Z,960.85
2017-12-17T00:48:16.268Z,960.87
2017-12-17T00:49:16.205Z,960.93
2017-12-17T00:50:16.141Z,961.00
2017-12-17T00:51:16.074Z,961.02
2017-12-17T00:52:16.010Z,960.99
2017-12-17T00:53:15.945Z,960.97
2017-12-17T00:54:15.878Z,960.96
2017-12-17T00:55:15.812Z,961.01
2017-12-17T00:56:15.748Z,960.99
2017-12-17T00:57:15.684Z,960.99
2017-12-17T00:58:15.618Z,961.00
2017-12-17T00:59:15.556Z,961.02
2017-12-17T01:00:15.489Z,960.98
2017-12-17T01:01:15.425Z,961.04
2017-12-17T01:02:15.357Z,961.04
2017-12-17T01:03:15.291Z,961.07
2017-12-17T01:04:15.229Z,961.05
2017-12-17T01:05:15.163Z,961.04
2017-12-17T01:06:15.096Z,961.10
2017-12-17T01:07:15.033Z,961.06
2017-12-17T01:08:14.969Z,961.09
2017-12-17T01:09:14.906Z,961.12
2017-12-17T01:10:14.836Z,961.07
2017-12-17T01:11:14.775Z,961.11
2017-12-17T01:12:14.708Z,961.14
2017-12-17T01:13:14.642Z,961.11
2017-12-17T01:14:14.579Z,961.18
2017-12-17T01:15:14.511Z,961.15
2017-12-17T01:16:14.447Z,961.14
2017-12-17T01:17:14.383Z,961.17
2017-12-17T01:18:14.318Z,961.20
2017-12-17T01:19:14.254Z,961.17
2017-12-17T01:20:14.186Z,961.24
2017-12-17T01:21:14.121Z,961.20
2017-12-17T01:22:14.056Z,961.24
2017-12-17T01:23:13.992Z,961.21
2017-12-17T01:24:13.925Z,961.19
2017-12-17T01:25:13.867Z,961.25
2017-12-17T01:26:13.796Z,961.29
2017-12-17T01:27:13.729Z,961.30
2017-12-17T01:28:13.665Z,961.29
2017-12-17T01:29:13.601Z,961.34
2017-12-17T01:30:13.536Z,961.40
2017-12-17T01:31:13.492Z,961.36
2017-12-17T01:32:13.407Z,961.38
2017-12-17T01:33:13.341Z,961.37
2017-12-17T01:34:13.275Z,961.40
2017-12-17T01:35:13.208Z,961.44
2017-12-17T01:36:13.143Z,961.44
2017-12-17T01:37:13.080Z,961.45
2017-12-17T01:38:13.013Z,961.48
2017-12-17T01:39:12.947Z,961.49
2017-12-17T01:40:12.882Z,961.52
2017-12-17T01:41:12.824Z,961.52
2017-12-17T01:42:12.756Z,961.50
2017-12-17T01:43:12.688Z,961.52
2017-12-17T01:44:12.624Z,961.49
2017-12-17T01:45:12.556Z,961.49
2017-12-17T01:46:12.491Z,961.56
2017-12-17T01:47:12.429Z,961.59
2017-12-17T01:48:12.359Z,961.61
2017-12-17T01:49:12.294Z,961.63
2017-12-17T01:50:12.228Z,961.63
2017-12-17T01:51:12.165Z,961.66
2017-12-17T01:52:12.100Z,961.63
2017-12-17T01:53:12.035Z,961.64
2017-12-17T01:54:11.970Z,961.61
2017-12-17T01:55:11.910Z,961.58
2017-12-17T01:56:11.838Z,961.58
2017-12-17T01:57:11.773Z,961.61
2017-12-17T01:58:11.707Z,961.63
2017-12-17T01:59:11.641Z,961.68
2017-12-17T02:00:11.576Z,961.70
2017-12-17T02:01:11.512Z,961.69
2017-12-17T02:02:11.446Z,961.72
2017-12-17T02:03:11.381Z,961.72
2017-12-17T02:04:11.320Z,961.72
2017-12-17T02:05:11.251Z,961.78
2017-12-17T02:06:11.184Z,961.77
2017-12-17T02:07:11.120Z,961.77
2017-12-17T02:08:11.054Z,961.80
2017-12-17T02:09:10.991Z,961.81
2017-12-17T02:10:10.924Z,961.79
2017-12-17T02:11:10.862Z,961.78
2017-12-17T02:12:10.793Z,961.82
2017-12-17T02:13:10.729Z,961.76
2017-12-17T02:14:10.663Z,961.78
2017-12-17T02:15:10.597Z,961.78
2017-12-17T02:16:10.531Z,961.77
2017-12-17T02:17:10.477Z,961.79
2017-12-17T02:18:10.399Z,961.76
2017-12-17T02:19:10.337Z,961.81
2017-12-17T02:20:10.271Z,961.82
2017-12-17T02:21:10.206Z,961.86
2017-12-17T02:22:10.141Z,961.90
2017-12-17T02:23:10.077Z,961.92
2017-12-17T02:24:10.010Z,961.93
2017-12-17T02:25:09.944Z,961.94
2017-12-17T02:26:09.883Z,961.96
2017-12-17T02:27:09.812Z,961.98
2017-12-17T02:28:09.747Z,961.98
2017-12-17T02:29:09.685Z,961.98
2017-12-17T02:30:09.627Z,961.97
2017-12-17T02:31:09.550Z,961.96
2017-12-17T02:32:09.480Z,961.97
2017-12-17T02:33:09.427Z,961.95
2017-12-17T02:34:09.351Z,962.00
2017-12-17T02:35:09.288Z,961.98
2017-12-17T02:36:09.223Z,962.03
2017-12-17T02:37:09.160Z,961.97
2017-12-17T02:38:09.092Z,961.95
2017-12-17T02:39:09.026Z,961.97
2017-12-17T02:40:08.960Z,962.01
2017-12-17T02:41:08.897Z,961.93
2017-12-17T02:42:08.830Z,961.97
2017-12-17T02:43:08.764Z,961.96
2017-12-17T02:44:08.699Z,961.93
2017-12-17T02:45:08.634Z,961.96
2017-12-17T02:46:08.575Z,961.93
2017-12-17T02:47:08.503Z,961.93
2017-12-17T02:48:08.436Z,961.96
2017-12-17T02:49:08.374Z,961.96
2017-12-17T02:50:08.306Z,961.99
2017-12-17T02:51:08.240Z,961.96
2017-12-17T02:52:08.176Z,961.95
2017-12-17T02:53:08.113Z,962.03
2017-12-17T02:54:08.043Z,962.08
2017-12-17T02:55:07.979Z,962.06
2017-12-17T02:56:07.914Z,962.12
2017-12-17T02:57:07.850Z,962.13
2017-12-17T02:58:07.781Z,962.12
2017-12-17T02:59:07.716Z,962.13
2017-12-17T03:00:07.651Z,962.18
2017-12-17T03:01:07.586Z,962.18
2017-12-17T03:02:07.521Z,962.12
2017-12-17T03:03:07.456Z,962.16
2017-12-17T03:04:07.389Z,962.17
2017-12-17T03:05:07.323Z,962.16
2017-12-17T03:06:07.259Z,962.17
2017-12-17T03:07:07.191Z,962.23
2017-12-17T03:08:07.131Z,962.21
2017-12-17T03:09:07.066Z,962.24
2017-12-17T03:10:07.012Z,962.23
2017-12-17T03:11:06.931Z,962.26
2017-12-17T03:12:06.869Z,962.22
2017-12-17T03:13:06.802Z,962.25
2017-12-17T03:14:06.735Z,962.22
2017-12-17T03:15:06.669Z,962.28
2017-12-17T03:16:06.605Z,962.28
2017-12-17T03:17:06.541Z,962.27
2017-12-17T03:18:06.474Z,962.25
2017-12-17T03:19:06.408Z,962.25
2017-12-17T03:20:06.343Z,962.25
2017-12-17T03:21:06.280Z,962.28
2017-12-17T03:22:06.211Z,962.24
2017-12-17T03:23:06.146Z,962.28
2017-12-17T03:24:06.081Z,962.32
2017-12-17T03:25:06.020Z,962.31
2017-12-17T03:26:05.953Z,962.29
2017-12-17T03:27:05.887Z,962.33
2017-12-17T03:28:05.821Z,962.34
2017-12-17T03:29:05.756Z,962.34
2017-12-17T03:30:05.694Z,962.35
2017-12-17T03:31:05.624Z,962.33
2017-12-17T03:32:05.560Z,962.36
2017-12-17T03:33:05.492Z,962.39
2017-12-17T03:34:05.428Z,962.41
2017-12-17T03:35:05.363Z,962.42
2017-12-17T03:36:05.299Z,962.42
2017-12-17T03:37:05.232Z,962.41
2017-12-17T03:38:05.166Z,962.44
2017-12-17T03:39:05.100Z,962.43
2017-12-17T03:40:05.037Z,962.39
2017-12-17T03:41:04.970Z,962.42
2017-12-17T03:42:04.905Z,962.47
2017-12-17T03:43:04.839Z,962.43
2017-12-17T03:44:04.775Z,962.45
2017-12-17T03:45:04.709Z,962.46
2017-12-17T03:46:04.641Z,962.48
2017-12-17T03:47:04.578Z,962.47
2017-12-17T03:48:04.511Z,962.47
2017-12-17T03:49:04.448Z,962.45
2017-12-17T03:50:04.384Z,962.43
2017-12-17T03:51:04.317Z,962.46
2017-12-17T03:52:04.253Z,962.49
2017-12-17T03:53:04.260Z,962.47
2017-12-17T03:54:04.120Z,962.49
2017-12-17T03:55:04.056Z,962.54
2017-12-17T03:56:03.989Z,962.53
2017-12-17T03:57:03.929Z,962.55
2017-12-17T03:58:03.859Z,962.57
2017-12-17T03:59:03.801Z,962.56
2017-12-17T04:00:03.729Z,962.60
2017-12-17T04:01:03.662Z,962.58
2017-12-17T04:02:03.597Z,962.58
2017-12-17T04:03:03.532Z,962.63
2017-12-17T04:04:03.467Z,962.60
2017-12-17T04:05:03.405Z,962.63
2017-12-17T04:06:03.337Z,962.67
2017-12-17T04:07:03.271Z,962.65
2017-12-17T04:08:03.208Z,962.65
2017-12-17T04:09:03.142Z,962.66
2017-12-17T04:10:03.074Z,962.66
2017-12-17T04:11:03.009Z,962.66
2017-12-17T04:12:02.942Z,962.67
2017-12-17T04:13:02.879Z,962.65
2017-12-17T04:14:02.815Z,962.63
2017-12-17T04:15:02.748Z,962.64
2017-12-17T04:16:02.682Z,962.67
2017-12-17T04:17:02.617Z,962.63
2017-12-17T04:18:02.553Z,962.64
2017-12-17T04:19:02.489Z,962.66
2017-12-17T04:20:02.420Z,962.66
2017-12-17T04:21:02.355Z,962.71
2017-12-17T04:22:02.291Z,962.68
2017-12-17T04:23:02.223Z,962.77
2017-12-17T04:24:02.160Z,962.78
2017-12-17T04:25:02.092Z,962.76
2017-12-17T04:26:02.028Z,962.75
2017-12-17T04:27:01.961Z,962.79
2017-12-17T04:28:01.893Z,962.75
2017-12-17T04:29:01.828Z,962.75
2017-12-17T04:30:01.762Z,962.84
2017-12-17T04:31:01.699Z,962.80
2017-12-17T04:32:01.631Z,962.82
2017-12-17T04:33:01.573Z,962.83
2017-12-17T04:34:01.499Z,962.80
2017-12-17T04:35:01.436Z,962.83
2017-12-17T04:36:01.368Z,962.83
2017-12-17T04:37:01.305Z,962.80
2017-12-17T04:38:01.238Z,962.88
2017-12-17T04:39:01.173Z,962.88
2017-12-17T04:40:01.106Z,962.87
2017-12-17T04:41:01.041Z,962.93
2017-12-17T04:42:00.978Z,962.90
2017-12-17T04:43:00.908Z,962.93
2017-12-17T04:44:00.842Z,962.90
2017-12-17T04:45:00.777Z,962.90
2017-12-17T04:46:00.715Z,962.92
2017-12-17T04:47:00.643Z,962.89
2017-12-17T04:48:00.579Z,962.90
2017-12-17T04:49:00.514Z,962.92
2017-12-17T04:50:00.447Z,962.92
2017-12-17T04:51:00.381Z,962.91
2017-12-17T04:52:00.316Z,962.95
2017-12-17T04:53:00.250Z,962.96
2017-12-17T04:54:00.185Z,962.98
2017-12-17T04:55:00.126Z,962.95
2017-12-17T04:56:00.052Z,962.99
2017-12-17T04:57:00.002Z,962.99
2017-12-17T04:57:59.920Z,963.01
2017-12-17T04:58:59.847Z,962.97
2017-12-17T04:59:59.789Z,963.08
2017-12-17T05:00:59.722Z,963.02
2017-12-17T05:01:59.656Z,963.01
2017-12-17T05:02:59.591Z,963.00
2017-12-17T05:03:59.525Z,963.00
2017-12-17T05:04:59.460Z,963.00
2017-12-17T05:05:59.390Z,963.08
2017-12-17T05:06:59.326Z,963.03
2017-12-17T05:07:59.260Z,963.03
2017-12-17T05:08:59.196Z,963.05
2017-12-17T05:09:59.131Z,963.04
2017-12-17T05:10:59.070Z,963.05
2017-12-17T05:11:59.000Z,963.07
2017-12-17T05:12:58.931Z,963.09
2017-12-17T05:13:58.863Z,963.10
2017-12-17T05:14:58.798Z,963.11
2017-12-17T05:15:58.729Z,963.08
2017-12-17T05:16:58.669Z,963.13
2017-12-17T05:17:58.602Z,963.17
2017-12-17T05:18:58.542Z,963.12
2017-12-17T05:19:58.476Z,963.14
2017-12-17T05:20:58.403Z,963.14
2017-12-17T05:21:58.338Z,963.18
2017-12-17T05:22:58.270Z,963.20
2017-12-17T05:23:58.208Z,963.21
2017-12-17T05:24:58.144Z,963.23
2017-12-17T05:25:58.075Z,963.22
2017-12-17T05:26:58.010Z,963.28
2017-12-17T05:27:57.943Z,963.26
2017-12-17T05:28:57.879Z,963.27
2017-12-17T05:29:57.812Z,963.25
2017-12-17T05:30:57.744Z,963.27
2017-12-17T05:31:57.690Z,963.28
2017-12-17T05:32:57.614Z,963.27
2017-12-17T05:33:57.549Z,963.28
2017-12-17T05:34:57.486Z,963.33
2017-12-17T05:35:57.417Z,963.29
2017-12-17T05:36:57.352Z,963.35
2017-12-17T05:37:57.297Z,963.33
2017-12-17T05:38:57.220Z,963.36
2017-12-17T05:39:57.154Z,963.33
2017-12-17T05:40:57.089Z,963.38
2017-12-17T05:41:57.027Z,963.38
2017-12-17T05:42:56.957Z,963.36
2017-12-17T05:43:56.890Z,963.42
2017-12-17T05:44:56.826Z,963.42
2017-12-17T05:45:56.770Z,963.45
2017-12-17T05:46:56.694Z,963.45
2017-12-17T05:47:56.627Z,963.45
2017-12-17T05:48:56.563Z,963.46
2017-12-17T05:49:56.496Z,963.46
2017-12-17T05:50:56.429Z,963.46
2017-12-17T05:51:56.365Z,963.49
2017-12-17T05:52:56.299Z,963.51
2017-12-17T05:53:56.233Z,963.46
2017-12-17T05:54:56.170Z,963.50
2017-12-17T05:55:56.143Z,963.53
2017-12-17T05:56:56.037Z,963.50
2017-12-17T05:57:55.977Z,963.56
2017-12-17T05:58:55.905Z,963.54
2017-12-17T05:59:55.841Z,963.57
2017-12-17T06:00:55.775Z,963.57
2017-12-17T06:01:55.714Z,963.57
2017-12-17T06:02:55.652Z,963.51
2017-12-17T06:03:55.582Z,963.54
2017-12-17T06:04:55.512Z,963.57
2017-12-17T06:05:55.447Z,963.57
2017-12-17T06:06:55.381Z,963.59
2017-12-17T06:07:55.316Z,963.61
2017-12-17T06:08:55.251Z,963.64
2017-12-17T06:09:55.186Z,963.62
2017-12-17T06:10:55.120Z,963.56
2017-12-17T06:11:55.054Z,963.59
2017-12-17T06:12:54.990Z,963.60
2017-12-17T06:13:54.924Z,963.63
2017-12-17T06:14:54.861Z,963.61
2017-12-17T06:15:54.792Z,963.64
2017-12-17T06:16:54.726Z,963.67
2017-12-17T06:17:54.660Z,963.67
2017-12-17T06:18:54.598Z,963.67
2017-12-17T06:19:54.530Z,963.74
2017-12-17T06:20:54.464Z,963.71
2017-12-17T06:21:54.400Z,963.74
2017-12-17T06:22:54.333Z,963.72
2017-12-17T06:23:54.269Z,963.79
2017-12-17T06:24:54.203Z,963.79
2017-12-17T06:25:54.136Z,963.76
2017-12-17T06:26:54.072Z,963.79
2017-12-17T06:27:54.009Z,963.79
2017-12-17T06:28:53.955Z,963.79
2017-12-17T06:29:53.875Z,963.84
2017-12-17T06:30:53.811Z,963.85
2017-12-17T06:31:53.751Z,963.82
2017-12-17T06:32:53.681Z,963.86
2017-12-17T06:33:53.612Z,963.88
2017-12-17T06:34:53.553Z,963.93
2017-12-17T06:35:53.484Z,963.91
2017-12-17T06:36:53.420Z,963.87
2017-12-17T06:37:53.353Z,963.91
2017-12-17T06:38:53.286Z,963.94
2017-12-17T06:39:53.221Z,963.95
2017-12-17T06:40:53.167Z,963.96
2017-12-17T06:41:53.094Z,963.94
2017-12-17T06:42:53.025Z,963.94
2017-12-17T06:43:52.960Z,963.94
2017-12-17T06:44:52.897Z,963.94
2017-12-17T06:45:52.828Z,963.91
2017-12-17T06:46:52.763Z,963.96
2017-12-17T06:47:52.698Z,963.98
2017-12-17T06:48:52.635Z,963.95
2017-12-17T06:49:52.570Z,963.99
2017-12-17T06:50:52.502Z,964.06
2017-12-17T06:51:52.437Z,964.04
2017-12-17T06:52:52.371Z,964.05
2017-12-17T06:53:52.303Z,964.09
2017-12-17T06:54:52.239Z,964.07
2017-12-17T06:55:52.175Z,964.06
2017-12-17T06:56:52.111Z,964.10
2017-12-17T06:57:52.044Z,964.09
2017-12-17T06:58:51.980Z,964.07
2017-12-17T06:59:51.915Z,964.11
2017-12-17T07:00:51.851Z,964.08
2017-12-17T07:01:51.784Z,964.10
2017-12-17T07:02:51.716Z,964.15
2017-12-17T07:03:51.711Z,964.10
2017-12-17T07:04:51.586Z,964.17
2017-12-17T07:05:51.520Z,964.16
2017-12-17T07:06:51.455Z,964.13
2017-12-17T07:07:51.392Z,964.14
2017-12-17T07:08:51.326Z,964.19
2017-12-17T07:09:51.264Z,964.18
2017-12-17T07:10:51.195Z,964.14
2017-12-17T07:11:51.131Z,964.19
2017-12-17T07:12:51.065Z,964.20
2017-12-17T07:13:50.998Z,964.17
2017-12-17T07:14:50.934Z,964.20
2017-12-17T07:15:50.866Z,964.23
2017-12-17T07:16:50.803Z,964.25
2017-12-17T07:17:50.737Z,964.24
2017-12-17T07:18:50.663Z,964.26
2017-12-17T07:19:50.606Z,964.29
2017-12-17T07:20:50.542Z,964.30
2017-12-17T07:21:50.471Z,964.32
2017-12-17T07:22:50.411Z,964.34
2017-12-17T07:23:50.359Z,964.34
2017-12-17T07:24:50.279Z,964.38
2017-12-17T07:25:50.214Z,964.39
2017-12-17T07:26:50.149Z,964.42
2017-12-17T07:27:50.083Z,964.42
2017-12-17T07:28:50.021Z,964.41
2017-12-17T07:29:49.952Z,964.42
2017-12-17T07:30:49.889Z,964.42
2017-12-17T07:31:49.827Z,964.43
2017-12-17T07:32:49.758Z,964.41
2017-12-17T07:33:49.699Z,964.42
2017-12-17T07:34:49.633Z,964.47
2017-12-17T07:35:49.562Z,964.47
2017-12-17T07:36:49.496Z,964.42
2017-12-17T07:37:49.430Z,964.43
2017-12-17T07:38:49.367Z,964.40
2017-12-17T07:39:49.302Z,964.46
2017-12-17T07:40:49.237Z,964.45
2017-12-17T07:41:49.174Z,964.44
2017-12-17T07:42:49.106Z,964.47
2017-12-17T07:43:49.040Z,964.45
2017-12-17T07:44:48.975Z,964.48
2017-12-17T07:45:48.913Z,964.45
2017-12-17T07:46:48.843Z,964.46
2017-12-17T07:47:48.782Z,964.45
2017-12-17T07:48:48.721Z,964.50
2017-12-17T07:49:48.649Z,964.47
2017-12-17T07:50:48.586Z,964.57
2017-12-17T07:51:48.519Z,964.58
2017-12-17T07:52:48.455Z,964.55
2017-12-17T07:53:48.390Z,964.59
2017-12-17T07:54:48.326Z,964.61
2017-12-17T07:55:48.262Z,964.60
2017-12-17T07:56:48.195Z,964.64
2017-12-17T07:57:48.133Z,964.65
2017-12-17T07:58:48.065Z,964.66
2017-12-17T07:59:48.004Z,964.67
2017-12-17T08:00:47.936Z,964.67
2017-12-17T08:01:47.870Z,964.72
2017-12-17T08:02:47.806Z,964.71
2017-12-17T08:03:47.743Z,964.70
2017-12-17T08:04:47.676Z,964.72
2017-12-17T08:05:47.612Z,964.75
2017-12-17T08:06:47.546Z,964.73
2017-12-17T08:07:47.482Z,964.79
2017-12-17T08:08:47.417Z,964.79
2017-12-17T08:09:47.351Z,964.76
2017-12-17T08:10:47.290Z,964.76
2017-12-17T08:11:47.226Z,964.80
2017-12-17T08:12:47.158Z,964.81
2017-12-17T08:13:47.102Z,964.82
2017-12-17T08:14:47.027Z,964.76
2017-12-17T08:15:46.966Z,964.78
2017-12-17T08:16:46.898Z,964.77
2017-12-17T08:17:46.832Z,964.76
2017-12-17T08:18:46.768Z,964.77
2017-12-17T08:19:46.704Z,964.79
2017-12-17T08:20:46.646Z,964.83
2017-12-17T08:21:46.575Z,964.86
2017-12-17T08:22:46.509Z,964.86
2017-12-17T08:23:46.447Z,964.91
2017-12-17T08:24:46.379Z,964.88
2017-12-17T08:25:46.316Z,964.90
2017-12-17T08:26:46.250Z,964.90
2017-12-17T08:27:46.239Z,964.91
2017-12-17T08:28:46.119Z,964.90
2017-12-17T08:29:46.055Z,964.94
2017-12-17T08:30:45.991Z,964.99
2017-12-17T08:31:45.925Z,965.00
2017-12-17T08:32:45.867Z,964.99
2017-12-17T08:33:45.796Z,965.00
2017-12-17T08:34:45.732Z,965.04
2017-12-17T08:35:45.667Z,965.01
2017-12-17T08:36:45.601Z,965.04
2017-12-17T08:37:45.538Z,965.06
2017-12-17T08:38:45.471Z,965.06
2017-12-17T08:39:45.412Z,965.06
2017-12-17T08:40:45.343Z,965.04
2017-12-17T08:41:45.278Z,965.08
2017-12-17T08:42:45.214Z,965.12
2017-12-17T08:43:45.147Z,965.14
2017-12-17T08:44:45.085Z,965.18
2017-12-17T08:45:45.020Z,965.15
2017-12-17T08:46:44.961Z,965.15
2017-12-17T08:47:44.890Z,965.18
2017-12-17T08:48:44.848Z,965.17
2017-12-17T08:49:44.759Z,965.14
2017-12-17T08:50:44.697Z,965.18
2017-12-17T08:51:44.629Z,965.18
2017-12-17T08:52:44.568Z,965.21
2017-12-17T08:53:44.500Z,965.21
2017-12-17T08:54:44.434Z,965.21
2017-12-17T08:55:44.369Z,965.21
2017-12-17T08:56:44.311Z,965.20
2017-12-17T08:57:44.241Z,965.24
2017-12-17T08:58:44.175Z,965.25
2017-12-17T08:59:44.111Z,965.23
2017-12-17T09:00:44.052Z,965.26
2017-12-17T09:01:43.982Z,965.30
2017-12-17T09:02:43.918Z,965.30
2017-12-17T09:03:43.852Z,965.34
2017-12-17T09:04:43.788Z,965.38
2017-12-17T09:05:43.720Z,965.35
2017-12-17T09:06:43.667Z,965.35
2017-12-17T09:07:43.595Z,965.40
2017-12-17T09:08:43.532Z,965.43
2017-12-17T09:09:43.463Z,965.43
2017-12-17T09:10:43.397Z,965.46
2017-12-17T09:11:43.333Z,965.50
2017-12-17T09:12:43.265Z,965.50
2017-12-17T09:13:43.205Z,965.52
2017-12-17T09:14:43.137Z,965.59
2017-12-17T09:15:43.081Z,965.58
2017-12-17T09:16:43.008Z,965.57
2017-12-17T09:17:42.942Z,965.58
2017-12-17T09:18:42.878Z,965.62
2017-12-17T09:19:42.815Z,965.64
2017-12-17T09:20:42.757Z,965.65
2017-12-17T09:21:42.682Z,965.69
2017-12-17T09:22:42.624Z,965.69
2017-12-17T09:23:42.554Z,965.70
2017-12-17T09:24:42.491Z,965.72
2017-12-17T09:25:42.425Z,965.71
2017-12-17T09:26:42.358Z,965.74
2017-12-17T09:27:42.294Z,965.73
2017-12-17T09:28:42.231Z,965.73
2017-12-17T09:29:42.164Z,965.74
2017-12-17T09:30:42.101Z,965.77
2017-12-17T09:31:42.037Z,965.79
2017-12-17T09:32:41.969Z,965.76
2017-12-17T09:33:41.904Z,965.79
2017-12-17T09:34:41.839Z,965.81
2017-12-17T09:35:41.774Z,965.81
2017-12-17T09:36:41.709Z,965.84
2017-12-17T09:37:41.643Z,965.83
2017-12-17T09:38:41.586Z,965.87
2017-12-17T09:39:41.516Z,965.81
2017-12-17T09:40:41.455Z,965.86
2017-12-17T09:41:41.384Z,965.85
2017-12-17T09:42:41.319Z,965.89
2017-12-17T09:43:41.255Z,965.88
2017-12-17T09:44:41.194Z,965.87
2017-12-17T09:45:41.126Z,965.88
2017-12-17T09:46:41.060Z,965.80
2017-12-17T09:47:40.995Z,965.80
2017-12-17T09:48:40.937Z,965.82
2017-12-17T09:49:40.865Z,965.78
2017-12-17T09:50:40.800Z,965.84
2017-12-17T09:51:40.739Z,965.83
2017-12-17T09:52:40.673Z,965.79
2017-12-17T09:53:40.606Z,965.82
2017-12-17T09:54:40.541Z,965.82
2017-12-17T09:55:40.479Z,965.83
2017-12-17T09:56:40.414Z,965.80
2017-12-17T09:57:40.345Z,965.81
2017-12-17T09:58:40.284Z,965.80
2017-12-17T09:59:40.218Z,965.80
2017-12-17T10:00:40.154Z,965.80
2017-12-17T10:01:40.087Z,965.79
2017-12-17T10:02:40.022Z,965.80
2017-12-17T10:03:39.951Z,965.75
2017-12-17T10:04:39.894Z,965.79
2017-12-17T10:05:39.829Z,965.77
2017-12-17T10:06:39.765Z,965.79
2017-12-17T10:07:39.699Z,965.76
2017-12-17T10:08:39.635Z,965.73
2017-12-17T10:09:39.570Z,965.81
2017-12-17T10:10:39.505Z,965.79
2017-12-17T10:11:39.441Z,965.83
2017-12-17T10:12:39.378Z,965.81
2017-12-17T10:13:39.310Z,965.81
2017-12-17T10:14:39.248Z,965.82
2017-12-17T10:15:39.183Z,965.87
2017-12-17T10:16:39.145Z,965.88
2017-12-17T10:17:39.086Z,965.87
2017-12-17T10:18:39.015Z,965.86
2017-12-17T10:19:38.925Z,965.89
2017-12-17T10:20:38.861Z,965.91
2017-12-17T10:21:38.795Z,965.89
2017-12-17T10:22:38.732Z,965.86
2017-12-17T10:23:38.668Z,965.89
2017-12-17T10:24:38.606Z,965.91
2017-12-17T10:25:38.539Z,965.87
2017-12-17T10:26:38.475Z,965.91
2017-12-17T10:27:38.410Z,965.89
2017-12-17T10:28:38.347Z,965.90
2017-12-17T10:29:38.284Z,965.88
2017-12-17T10:30:38.219Z,965.89
2017-12-17T10:31:38.154Z,965.90
2017-12-17T10:32:38.096Z,965.90
2017-12-17T10:33:38.032Z,965.83
2017-12-17T10:34:37.965Z,965.81
2017-12-17T10:35:37.899Z,965.78
2017-12-17T10:36:37.835Z,965.81
2017-12-17T10:37:37.773Z,965.76
2017-12-17T10:38:37.707Z,965.80
2017-12-17T10:39:37.645Z,965.79
2017-12-17T10:40:37.581Z,965.81
2017-12-17T10:41:37.515Z,965.83
2017-12-17T10:42:37.452Z,965.87
2017-12-17T10:43:37.388Z,965.88
2017-12-17T10:44:37.327Z,965.85
2017-12-17T10:45:37.261Z,965.86
2017-12-17T10:46:37.198Z,965.89
2017-12-17T10:47:37.136Z,965.84
2017-12-17T10:48:37.075Z,965.88
2017-12-17T10:49:37.006Z,965.85
2017-12-17T10:50:36.949Z,965.90
2017-12-17T10:51:36.883Z,965.88
2017-12-17T10:52:36.819Z,965.85
2017-12-17T10:53:36.754Z,965.85
2017-12-17T10:54:36.693Z,965.89
2017-12-17T10:55:36.627Z,965.86
2017-12-17T10:56:36.563Z,965.84
2017-12-17T10:57:36.500Z,965.78
2017-12-17T10:58:36.439Z,965.79
2017-12-17T10:59:36.373Z,965.80
2017-12-17T11:00:36.311Z,965.79
2017-12-17T11:01:36.243Z,965.81
2017-12-17T11:02:36.184Z,965.83
2017-12-17T11:03:36.138Z,965.78
2017-12-17T11:04:36.062Z,965.74
2017-12-17T11:05:35.993Z,965.72
2017-12-17T11:06:35.930Z,965.73
2017-12-17T11:07:35.866Z,965.69
2017-12-17T11:08:35.805Z,965.75
2017-12-17T11:09:35.740Z,965.71
2017-12-17T11:10:35.676Z,965.75
2017-12-17T11:11:35.613Z,965.73
2017-12-17T11:12:35.548Z,965.71
2017-12-17T11:13:35.488Z,965.75
2017-12-17T11:14:35.424Z,965.72
2017-12-17T11:15:35.358Z,965.75
2017-12-17T11:16:35.298Z,965.73
2017-12-17T11:17:35.231Z,965.72
2017-12-17T11:18:35.168Z,965.71
2017-12-17T11:19:35.105Z,965.72
2017-12-17T11:20:35.043Z,965.75
2017-12-17T11:21:34.976Z,965.76
2017-12-17T11:22:34.914Z,965.72
2017-12-17T11:23:34.851Z,965.70
2017-12-17T11:24:34.787Z,965.69
2017-12-17T11:25:34.722Z,965.72
2017-12-17T11:26:34.657Z,965.70
2017-12-17T11:27:34.595Z,965.66
2017-12-17T11:28:34.531Z,965.72
2017-12-17T11:29:34.471Z,965.76
2017-12-17T11:30:34.400Z,965.74
2017-12-17T11:31:34.341Z,965.71
2017-12-17T11:32:34.276Z,965.71
2017-12-17T11:33:34.213Z,965.73
2017-12-17T11:34:34.148Z,965.75
2017-12-17T11:35:34.084Z,965.79
2017-12-17T11:36:34.052Z,965.75
2017-12-17T11:37:33.960Z,965.70
2017-12-17T11:38:33.893Z,965.70
2017-12-17T11:39:33.831Z,965.76
2017-12-17T11:40:33.767Z,965.70
2017-12-17T11:41:33.706Z,965.67
2017-12-17T11:42:33.680Z,965.67
2017-12-17T11:43:33.580Z,965.66
2017-12-17T11:44:33.511Z,965.61
2017-12-17T11:45:33.448Z,965.61
2017-12-17T11:46:33.387Z,965.61
2017-12-17T11:47:33.317Z,965.61
2017-12-17T11:48:33.255Z,965.62
2017-12-17T11:49:33.190Z,965.60
2017-12-17T11:50:33.125Z,965.58
2017-12-17T11:51:33.063Z,965.63
2017-12-17T11:52:32.997Z,965.60
2017-12-17T11:53:32.935Z,965.59
2017-12-17T11:54:32.872Z,965.59
2017-12-17T11:55:32.806Z,965.61
2017-12-17T11:56:32.745Z,965.62
2017-12-17T11:57:32.680Z,965.58
2017-12-17T11:58:32.615Z,965.60
2017-12-17T11:59:32.553Z,965.59
2017-12-17T12:00:32.489Z,965.58
2017-12-17T12:01:32.437Z,965.58
2017-12-17T12:02:32.355Z,965.58
2017-12-17T12:03:32.296Z,965.58
2017-12-17T12:04:32.231Z,965.54
2017-12-17T12:05:32.166Z,965.57
2017-12-17T12:06:32.107Z,965.57
2017-12-17T12:07:32.047Z,965.55
2017-12-17T12:08:31.976Z,965.53
2017-12-17T12:09:31.914Z,965.55
2017-12-17T12:10:31.849Z,965.53
2017-12-17T12:11:31.792Z,965.57
2017-12-17T12:12:31.713Z,965.57
2017-12-17T12:13:31.655Z,965.57
2017-12-17T12:14:31.594Z,965.59
2017-12-17T12:15:31.526Z,965.62
2017-12-17T12:16:31.466Z,965.64
2017-12-17T12:17:31.400Z,965.63
2017-12-17T12:18:31.338Z,965.64
2017-12-17T12:19:31.274Z,965.63
2017-12-17T12:20:31.218Z,965.70
2017-12-17T12:21:31.147Z,965.70
2017-12-17T12:22:31.084Z,965.71
2017-12-17T12:23:31.020Z,965.69
2017-12-17T12:24:30.958Z,965.69
2017-12-17T12:25:30.889Z,965.67
2017-12-17T12:26:30.829Z,965.62
2017-12-17T12:27:30.762Z,965.61